Airfield :
LOGIN :

Register | Disclaimer

   EN    FR    IT 

 










Legend :    VFR   Marginal VFR   IFR   Intensive IFR   Very Intensive IFR
Visi :
Ceiling :
>= 8 km
>= 3000ft
5 to 8 km
1000 to 3000 ft
1500m to 5 km
500 to 1000 ft
800 to 1500m
200 to 500 ft
< 800m
< 200 ft
Symbols :   Thunderstorms  Fog  Heavy snow  Heavy precipitations  Wind > 20 kt
SIGMETs :     Misc.  Thunderstorms  Icing  Turbulence  Mountain Waves  Volcanic Ashes







- Airport Elevation : 51 ft
- IATA code : GWT


EDXW - Westerland-Sylt Island

CURRENT METAR :
  • 171520Z 19009KT 5000 -RA FEW007 SCT012 17/16 Q1011 RERA

EXPIRED METARs :
  • 171508Z 20008KT 5000 RA FEW007 SCT012 BKN180 17/16 Q1011 RERA RMK ATIS WHI
  • 171450Z 21010KT 6000 -RA SCT006 BKN010 16/15 Q1012 RERA
  • 171420Z 20009KT 5000 RA BKN006 17/15 Q1012
  • 171350Z 22011KT 6000 -RA BKN007 BKN014 17/15 Q1012
  • 171320Z 22014KT 4400 -RA FEW005 SCT012 17/15 Q1012
  • 171250Z 19015KT 4900 -RA FEW009 SCT016 18/17 Q1012
  • 171220Z 17016KT 9999 -DZ NSC 20/16 Q1012

TAF TAF EDXW
Valid from the 17 at 15:00 until the 17 at 21:00 UTC


171400Z 1715/1721 22012KT 9999 SCT012 BKN035
PROB40
TEMPO 1715/1717 23015G30KT 4000 RA SCT005 BKN012
BECMG 1717/1720 BKN012
TEMPO 1717/1721 22015G25KT BKN008
No reported NOTAMs for that airfield.



MET'MAP, your aeronautical weather chart ! - Copyright ORBIFLY December 2007 - Disclaimer

ORBIFLY MET'MAP TEAM :

Programming & Development : Alexandra Zaïnal
Concept & Development : Baudouin d'Aumeries
Co-Development & Prog : Marc-Olivier Méhu
Technical & hardware support : Manuel Goepfert

Contact : metmap@orbifly.com




SOURCES & CREDITS :

   NOAA